createdAt,value
2022-11-14T00:01:20.788Z,12.37
2022-11-14T00:04:08.399Z,12.77
2022-11-14T00:06:56.074Z,12.80
2022-11-14T00:09:43.661Z,12.83
2022-11-14T00:12:30.964Z,12.58
2022-11-14T00:15:18.756Z,13.75
2022-11-14T00:18:08.055Z,13.07
2022-11-14T00:20:55.701Z,13.23
2022-11-14T00:23:43.494Z,13.10
2022-11-14T00:26:31.585Z,13.83
2022-11-14T00:29:19.252Z,14.07
2022-11-14T00:32:08.054Z,13.27
2022-11-14T00:34:55.573Z,13.33
2022-11-14T00:37:42.773Z,13.57
2022-11-14T00:40:30.417Z,14.10
2022-11-14T00:43:18.077Z,13.60
2022-11-14T00:46:06.706Z,14.10
2022-11-14T00:48:54.217Z,14.40
2022-11-14T00:51:41.726Z,13.87
2022-11-14T00:54:29.544Z,14.78
2022-11-14T00:57:17.406Z,13.93
2022-11-14T01:00:07.619Z,14.97
2022-11-14T01:02:58.371Z,15.28
2022-11-14T01:05:48.301Z,14.97
2022-11-14T01:08:36.257Z,15.13
2022-11-14T01:11:24.962Z,15.80
2022-11-14T01:14:13.135Z,15.98
2022-11-14T01:17:00.590Z,16.35
2022-11-14T01:19:47.955Z,17.17
2022-11-14T01:22:35.421Z,17.30
2022-11-14T01:25:22.843Z,16.40
2022-11-14T01:28:12.799Z,18.00
2022-11-14T01:31:14.707Z,18.67
2022-11-14T01:34:02.177Z,17.87
2022-11-14T01:36:49.916Z,17.80
2022-11-14T01:39:37.660Z,17.82
2022-11-14T01:42:27.435Z,18.42
2022-11-14T01:45:49.967Z,19.13
2022-11-14T01:48:48.631Z,18.47
2022-11-14T01:51:42.204Z,19.42
2022-11-14T01:54:35.553Z,18.27
2022-11-14T01:57:26.195Z,19.60
2022-11-14T02:00:15.587Z,20.05
2022-11-14T02:03:03.977Z,18.13
2022-11-14T02:05:53.056Z,18.70
2022-11-14T02:08:41.057Z,19.53
2022-11-14T02:11:31.903Z,19.40
2022-11-14T02:14:19.311Z,19.35
2022-11-14T02:17:28.354Z,18.83
2022-11-14T02:20:14.471Z,19.12
2022-11-14T02:23:02.198Z,20.57
2022-11-14T02:25:50.126Z,20.95
2022-11-14T02:28:37.469Z,21.00
2022-11-14T02:31:24.982Z,19.93
2022-11-14T02:34:14.737Z,20.75
2022-11-14T02:37:02.554Z,20.60
2022-11-14T02:39:50.176Z,20.02
2022-11-14T02:42:38.071Z,20.60
2022-11-14T02:45:26.493Z,20.97
2022-11-14T02:48:14.069Z,21.80
2022-11-14T02:51:01.267Z,21.60
2022-11-14T02:53:48.883Z,21.87
2022-11-14T02:56:36.306Z,21.27
2022-11-14T02:59:23.738Z,21.77
2022-11-14T03:02:11.154Z,20.85
2022-11-14T03:04:58.459Z,22.03
2022-11-14T03:07:45.984Z,22.20
2022-11-14T03:10:33.615Z,20.62
2022-11-14T03:13:21.037Z,21.87
2022-11-14T03:16:11.227Z,22.67
2022-11-14T03:18:58.684Z,22.80
2022-11-14T03:21:46.030Z,24.20
2022-11-14T03:27:39.483Z,24.20
2022-11-14T03:30:26.895Z,23.62
2022-11-14T03:33:14.506Z,25.00
2022-11-14T03:36:02.113Z,24.07
2022-11-14T03:38:49.512Z,24.50
2022-11-14T03:41:36.862Z,23.27
2022-11-14T03:44:24.073Z,24.13
2022-11-14T03:47:11.477Z,22.50
2022-11-14T03:49:59.039Z,24.37
2022-11-14T03:52:47.960Z,23.13
2022-11-14T03:55:35.184Z,23.93
2022-11-14T03:58:22.883Z,24.30
2022-11-14T04:01:10.578Z,22.57
2022-11-14T04:03:57.717Z,23.57
2022-11-14T04:06:45.950Z,23.98
2022-11-14T04:09:33.654Z,23.00
2022-11-14T04:12:21.152Z,25.25
2022-11-14T04:15:09.175Z,23.27
2022-11-14T04:17:56.611Z,23.43
2022-11-14T04:20:43.979Z,24.43
2022-11-14T04:23:31.045Z,24.20
2022-11-14T04:26:18.836Z,23.45
2022-11-14T04:29:06.061Z,23.27
2022-11-14T04:31:53.430Z,23.43
2022-11-14T04:34:40.892Z,22.70
2022-11-14T04:37:28.693Z,23.05
2022-11-14T04:40:16.377Z,22.17
2022-11-14T04:43:03.797Z,23.83
2022-11-14T04:45:51.308Z,24.00
2022-11-14T04:48:39.068Z,22.40
2022-11-14T04:51:27.128Z,22.85
2022-11-14T04:54:14.189Z,23.25
2022-11-14T04:57:01.767Z,22.53
2022-11-14T04:59:49.623Z,23.22
2022-11-14T05:02:37.024Z,24.47
2022-11-14T05:05:24.067Z,22.93
2022-11-14T05:08:11.703Z,22.73
2022-11-14T05:10:59.358Z,23.10
2022-11-14T05:13:47.341Z,22.77
2022-11-14T05:16:34.176Z,21.90
2022-11-14T05:19:22.114Z,22.53
2022-11-14T05:22:11.352Z,21.97
2022-11-14T05:24:58.670Z,22.80
2022-11-14T05:27:46.030Z,22.90
2022-11-14T05:30:33.807Z,22.60
2022-11-14T05:33:21.008Z,22.33
2022-11-14T05:36:13.623Z,22.17
2022-11-14T05:39:01.055Z,22.27
2022-11-14T05:41:48.986Z,22.25
2022-11-14T05:44:36.938Z,22.80
2022-11-14T05:47:24.156Z,21.55
2022-11-14T05:50:11.933Z,21.73
2022-11-14T05:52:59.496Z,21.80
2022-11-14T05:55:47.623Z,22.45
2022-11-14T05:58:36.042Z,21.20
2022-11-14T06:01:23.939Z,20.77
2022-11-14T06:04:14.639Z,22.20
2022-11-14T06:07:02.155Z,21.00
2022-11-14T06:09:49.759Z,20.93
2022-11-14T06:12:37.485Z,21.27
2022-11-14T06:15:24.908Z,21.07
2022-11-14T06:18:12.629Z,19.95
2022-11-14T06:21:04.606Z,21.47
2022-11-14T06:23:52.392Z,20.57
2022-11-14T06:26:39.762Z,21.47
2022-11-14T06:29:32.645Z,20.15
2022-11-14T06:32:16.899Z,20.13
2022-11-14T06:35:04.644Z,19.97
2022-11-14T06:37:52.245Z,19.73
2022-11-14T06:40:39.388Z,20.40
2022-11-14T06:43:27.350Z,19.50
2022-11-14T06:46:17.947Z,20.10
2022-11-14T06:49:05.425Z,19.67
2022-11-14T06:51:53.301Z,19.97
2022-11-14T06:54:40.455Z,19.70
2022-11-14T06:57:28.604Z,20.75
2022-11-14T07:00:16.657Z,19.27
2022-11-14T07:03:04.079Z,19.70
2022-11-14T07:05:51.510Z,20.10
2022-11-14T07:08:39.385Z,18.70
2022-11-14T07:11:30.107Z,19.87
2022-11-14T07:14:17.651Z,18.57
2022-11-14T07:17:05.331Z,18.67
2022-11-14T07:19:52.712Z,19.43
2022-11-14T07:22:40.371Z,18.10
2022-11-14T07:25:27.869Z,18.50
2022-11-14T07:28:15.161Z,19.13
2022-11-14T07:31:06.073Z,18.60
2022-11-14T07:33:53.758Z,18.48
2022-11-14T07:36:41.083Z,19.62
2022-11-14T07:39:28.724Z,21.23
2022-11-14T07:42:15.963Z,21.10
2022-11-14T07:45:03.424Z,21.13
2022-11-14T07:47:50.781Z,20.43
2022-11-14T07:50:38.704Z,22.10
2022-11-14T07:53:25.853Z,21.03
2022-11-14T07:56:13.607Z,21.20
2022-11-14T07:59:00.887Z,20.87
2022-11-14T08:01:48.320Z,19.93
2022-11-14T08:04:35.996Z,19.50
2022-11-14T08:07:23.249Z,18.20
2022-11-14T08:10:14.167Z,16.94
2022-11-14T08:13:30.355Z,17.83
2022-11-14T08:15:52.957Z,15.90
2022-11-14T08:18:40.260Z,16.33
2022-11-14T08:21:27.764Z,14.83
2022-11-14T08:24:15.393Z,13.05
2022-11-14T08:27:02.783Z,12.90
2022-11-14T08:29:51.084Z,12.77
2022-11-14T08:32:38.797Z,12.37
2022-11-14T08:35:26.427Z,12.20
2022-11-14T08:38:14.227Z,11.75
2022-11-14T08:41:04.177Z,11.67
2022-11-14T08:43:51.437Z,11.60
2022-11-14T08:46:39.546Z,10.90
2022-11-14T08:49:27.423Z,11.27
2022-11-14T08:52:16.852Z,10.83
2022-11-14T08:55:03.743Z,12.30
2022-11-14T08:57:54.650Z,10.83
2022-11-14T09:00:42.286Z,11.67
2022-11-14T09:03:30.054Z,11.22
2022-11-14T09:06:17.228Z,11.40
2022-11-14T09:09:04.957Z,11.00
2022-11-14T09:11:53.102Z,11.55
2022-11-14T09:14:40.489Z,12.13
2022-11-14T09:17:27.853Z,11.93
2022-11-14T09:20:15.965Z,12.03
2022-11-14T09:23:04.380Z,12.83
2022-11-14T09:25:52.083Z,10.97
2022-11-14T09:28:39.854Z,11.37
2022-11-14T09:31:27.297Z,11.33
2022-11-14T09:34:14.705Z,10.97
2022-11-14T09:37:02.802Z,10.80
2022-11-14T09:39:50.270Z,10.53
2022-11-14T09:43:05.226Z,11.23
2022-11-14T09:45:54.293Z,10.85
2022-11-14T09:48:41.890Z,10.27
2022-11-14T09:51:32.579Z,12.10
2022-11-14T09:54:31.653Z,10.70
2022-11-14T09:57:21.147Z,11.23
2022-11-14T10:00:16.185Z,11.45
2022-11-14T10:03:33.458Z,11.33
2022-11-14T10:06:38.556Z,11.23
2022-11-14T10:09:50.536Z,12.98
2022-11-14T10:13:00.564Z,12.50
2022-11-14T10:15:51.063Z,11.93
2022-11-14T10:19:15.562Z,11.67
2022-11-14T10:22:11.691Z,13.05
2022-11-14T10:25:21.886Z,12.75
2022-11-14T10:28:30.773Z,12.55
2022-11-14T10:31:37.486Z,12.57
2022-11-14T10:34:28.305Z,13.00
2022-11-14T10:37:24.830Z,13.77
2022-11-14T10:43:29.732Z,16.23
2022-11-14T10:46:20.088Z,13.63
2022-11-14T10:49:24.356Z,13.13
2022-11-14T10:52:17.445Z,14.80
2022-11-14T10:55:17.100Z,14.50
2022-11-14T10:58:16.253Z,14.30
2022-11-14T11:01:40.884Z,14.60
2022-11-14T11:04:31.358Z,15.27
2022-11-14T11:07:42.694Z,15.23
2022-11-14T11:10:49.528Z,14.87
2022-11-14T11:13:40.030Z,16.40
2022-11-14T11:16:29.890Z,16.90
2022-11-14T11:19:29.929Z,18.23
2022-11-14T11:22:39.879Z,19.63
2022-11-14T11:25:30.698Z,22.77
2022-11-14T11:28:22.972Z,23.07
2022-11-14T11:31:12.494Z,23.67
2022-11-14T11:34:03.272Z,24.13
2022-11-14T11:36:53.898Z,25.97
2022-11-14T11:39:44.332Z,22.85
2022-11-14T11:43:23.624Z,21.60
2022-11-14T11:45:28.792Z,19.90
2022-11-14T11:48:24.573Z,20.90
2022-11-14T11:51:17.993Z,21.05
2022-11-14T11:54:18.351Z,22.77
2022-11-14T11:57:08.980Z,22.37
2022-11-14T12:00:01.734Z,22.17
2022-11-14T12:02:52.152Z,21.27
2022-11-14T12:05:58.745Z,20.37
2022-11-14T12:09:21.952Z,21.00
2022-11-14T12:12:18.080Z,20.15
2022-11-14T12:15:32.725Z,20.20
2022-11-14T12:18:47.933Z,20.75
2022-11-14T12:21:58.879Z,21.10
2022-11-14T12:24:57.627Z,22.20
2022-11-14T12:27:56.860Z,20.73
2022-11-14T12:30:47.206Z,20.07
2022-11-14T12:33:37.225Z,19.03
2022-11-14T12:36:28.140Z,20.37
2022-11-14T12:39:31.133Z,20.10
2022-11-14T12:42:21.438Z,19.87
2022-11-14T12:45:28.832Z,20.30
2022-11-14T12:48:30.595Z,20.63
2022-11-14T12:51:30.180Z,21.40
2022-11-14T12:54:45.308Z,20.83
2022-11-14T12:57:47.753Z,22.20
2022-11-14T13:00:38.533Z,21.50
2022-11-14T13:03:29.683Z,22.07
2022-11-14T13:06:35.027Z,22.77
2022-11-14T13:09:28.023Z,22.45
2022-11-14T13:15:49.152Z,24.23
2022-11-14T13:18:53.716Z,22.77
2022-11-14T13:21:47.348Z,24.07
2022-11-14T13:25:03.016Z,21.80
2022-11-14T13:28:07.291Z,23.15
2022-11-14T13:31:07.623Z,20.70
2022-11-14T13:34:00.402Z,21.90
2022-11-14T13:37:13.005Z,22.93
2022-11-14T13:40:11.928Z,21.93
2022-11-14T13:43:34.032Z,20.53
2022-11-14T13:46:36.399Z,20.60
2022-11-14T13:49:32.463Z,22.57
2022-11-14T13:52:20.647Z,22.97
2022-11-14T13:55:08.332Z,20.63
2022-11-14T13:58:10.673Z,22.70
2022-11-14T14:01:27.859Z,20.83
2022-11-14T14:04:50.953Z,21.13
2022-11-14T14:08:12.513Z,21.63
2022-11-14T14:11:05.703Z,21.37
2022-11-14T14:13:56.308Z,22.03
2022-11-14T14:16:49.919Z,21.00
2022-11-14T14:20:13.493Z,21.85
2022-11-14T14:23:09.662Z,21.63
2022-11-14T14:26:02.933Z,22.00
2022-11-14T14:29:06.354Z,21.23
2022-11-14T14:31:53.879Z,21.82
2022-11-14T14:34:42.807Z,21.73
2022-11-14T14:37:32.278Z,19.83
2022-11-14T14:40:38.126Z,21.83
2022-11-14T14:43:28.574Z,21.97
2022-11-14T14:46:15.947Z,21.70
2022-11-14T14:49:05.322Z,22.63
2022-11-14T14:51:58.101Z,22.13
2022-11-14T14:54:42.522Z,21.10
2022-11-14T14:57:31.563Z,20.97
2022-11-14T15:00:26.739Z,22.07
2022-11-14T15:03:14.500Z,22.87
2022-11-14T15:06:04.300Z,26.13
2022-11-14T15:08:51.814Z,26.50
2022-11-14T15:11:42.396Z,22.73
2022-11-14T15:14:35.741Z,22.00
2022-11-14T15:17:24.945Z,22.00
2022-11-14T15:20:29.657Z,26.00
2022-11-14T15:23:21.856Z,22.65
2022-11-14T15:26:20.288Z,22.43
2022-11-14T15:29:21.392Z,21.77
2022-11-14T15:32:20.412Z,21.25
2022-11-14T15:35:11.786Z,22.58
2022-11-14T15:38:43.469Z,21.93
2022-11-14T15:41:23.086Z,21.73
2022-11-14T15:44:34.211Z,22.17
2022-11-14T15:47:30.596Z,21.47
2022-11-14T15:50:21.065Z,21.47
2022-11-14T15:53:23.804Z,21.10
2022-11-14T15:56:14.895Z,21.20
2022-11-14T15:59:02.960Z,21.10
2022-11-14T16:01:54.213Z,21.00
2022-11-14T16:04:47.218Z,20.53
2022-11-14T16:07:31.318Z,19.80
2022-11-14T16:10:21.242Z,25.88
2022-11-14T16:13:08.828Z,22.77
2022-11-14T16:15:56.522Z,24.57
2022-11-14T16:18:43.713Z,20.17
2022-11-14T16:21:31.746Z,18.97
2022-11-14T16:24:22.125Z,18.87
2022-11-14T16:27:09.845Z,19.03
2022-11-14T16:29:57.367Z,19.37
2022-11-14T16:32:46.954Z,18.47
2022-11-14T16:35:34.914Z,19.75
2022-11-14T16:38:22.022Z,20.05
2022-11-14T16:41:11.967Z,19.90
2022-11-14T16:43:59.394Z,18.77
2022-11-14T16:46:47.218Z,20.90
2022-11-14T16:49:34.619Z,21.48
2022-11-14T16:52:22.044Z,20.45
2022-11-14T16:55:10.597Z,20.60
2022-11-14T16:57:58.292Z,20.97
2022-11-14T17:00:45.809Z,19.67
2022-11-14T17:03:34.092Z,20.60
2022-11-14T17:06:21.332Z,19.83
2022-11-14T17:09:09.078Z,21.50
2022-11-14T17:11:56.530Z,20.80
2022-11-14T17:14:43.700Z,19.83
2022-11-14T17:17:32.304Z,20.90
2022-11-14T17:20:19.477Z,21.27
2022-11-14T17:23:07.025Z,19.37
2022-11-14T17:25:54.172Z,20.53
2022-11-14T17:28:43.112Z,20.37
2022-11-14T17:31:35.117Z,21.10
2022-11-14T17:34:20.962Z,21.42
2022-11-14T17:37:08.465Z,24.27
2022-11-14T17:39:55.785Z,21.67
2022-11-14T17:42:43.286Z,21.23
2022-11-14T17:45:30.845Z,20.80
2022-11-14T17:48:18.587Z,22.45
2022-11-14T17:51:10.215Z,23.60
2022-11-14T17:53:57.510Z,22.30
2022-11-14T17:56:49.657Z,21.15
2022-11-14T17:59:36.335Z,20.67
2022-11-14T18:02:23.267Z,20.37
2022-11-14T18:07:57.020Z,20.53
2022-11-14T18:10:45.455Z,19.47
2022-11-14T18:13:33.032Z,19.67
2022-11-14T18:16:21.421Z,19.00
2022-11-14T18:19:08.674Z,19.17
2022-11-14T18:21:56.265Z,19.33
2022-11-14T18:24:44.842Z,18.40
2022-11-14T18:27:32.183Z,19.20
2022-11-14T18:30:40.372Z,19.82
2022-11-14T18:33:08.834Z,87.30
2022-11-14T18:36:00.056Z,34.07
2022-11-14T18:38:47.694Z,21.40
2022-11-14T18:41:35.394Z,18.53
2022-11-14T18:44:24.130Z,20.03
2022-11-14T18:47:11.587Z,20.50
2022-11-14T18:50:00.818Z,18.87
2022-11-14T18:52:48.601Z,19.13
2022-11-14T18:55:40.576Z,17.35
2022-11-14T18:58:27.983Z,18.77
2022-11-14T19:01:22.970Z,17.67
2022-11-14T19:04:12.880Z,17.86
2022-11-14T19:07:01.041Z,17.62
2022-11-14T19:09:48.327Z,19.67
2022-11-14T19:12:35.654Z,18.53
2022-11-14T19:15:23.076Z,18.23
2022-11-14T19:18:11.765Z,18.06
2022-11-14T19:21:00.874Z,17.33
2022-11-14T19:23:50.274Z,19.63
2022-11-14T19:26:37.801Z,18.00
2022-11-14T19:29:25.307Z,17.93
2022-11-14T19:32:13.086Z,18.60
2022-11-14T19:35:00.635Z,18.60
2022-11-14T19:37:48.284Z,18.40
2022-11-14T19:40:40.277Z,17.27
2022-11-14T19:43:28.078Z,18.73
2022-11-14T19:46:20.707Z,18.80
2022-11-14T19:49:08.272Z,18.53
2022-11-14T19:51:55.824Z,18.70
2022-11-14T19:57:49.727Z,19.37
2022-11-14T20:00:37.835Z,18.40
2022-11-14T20:03:25.608Z,18.85
2022-11-14T20:06:18.750Z,17.17
2022-11-14T20:09:09.231Z,17.97
2022-11-14T20:11:56.813Z,16.97
2022-11-14T20:14:44.400Z,17.42
2022-11-14T20:17:33.234Z,17.60
2022-11-14T20:20:20.683Z,16.97
2022-11-14T20:23:07.978Z,17.73
2022-11-14T20:25:57.099Z,16.77
2022-11-14T20:28:46.635Z,16.67
2022-11-14T20:31:33.886Z,16.53
2022-11-14T20:34:21.098Z,16.60
2022-11-14T20:37:11.365Z,16.05
2022-11-14T20:39:57.550Z,16.00
2022-11-14T20:42:49.074Z,16.03
2022-11-14T20:45:36.479Z,16.63
2022-11-14T20:48:24.616Z,16.80
2022-11-14T20:51:21.068Z,16.47
2022-11-14T20:54:10.498Z,16.90
2022-11-14T20:56:57.879Z,15.77
2022-11-14T20:59:45.151Z,16.20
2022-11-14T21:02:33.777Z,16.20
2022-11-14T21:05:20.666Z,15.03
2022-11-14T21:08:10.021Z,16.23
2022-11-14T21:11:02.962Z,14.67
2022-11-14T21:13:59.304Z,15.57
2022-11-14T21:16:46.499Z,16.63
2022-11-14T21:19:33.894Z,16.57
2022-11-14T21:22:21.403Z,16.23
2022-11-14T21:25:09.217Z,16.40
2022-11-14T21:27:57.057Z,14.93
2022-11-14T21:30:45.126Z,16.60
2022-11-14T21:39:11.684Z,16.63
2022-11-14T21:41:59.056Z,16.00
2022-11-14T21:44:46.498Z,16.17
2022-11-14T21:47:35.212Z,17.52
2022-11-14T21:50:22.526Z,15.98
2022-11-14T21:53:11.718Z,16.23
2022-11-14T21:55:59.710Z,15.75
2022-11-14T21:58:47.304Z,16.87
2022-11-14T22:01:52.876Z,16.07
2022-11-14T22:04:40.348Z,16.77
2022-11-14T22:07:28.206Z,15.13
2022-11-14T22:10:15.634Z,16.00
2022-11-14T22:13:03.134Z,16.30
2022-11-14T22:15:50.871Z,15.10
2022-11-14T22:18:38.674Z,16.40
2022-11-14T22:21:26.719Z,15.70
2022-11-14T22:24:14.685Z,14.98
2022-11-14T22:27:02.048Z,16.07
2022-11-14T22:29:49.535Z,15.47
2022-11-14T22:32:36.642Z,16.53
2022-11-14T22:35:24.063Z,14.80
2022-11-14T22:38:11.264Z,16.60
2022-11-14T22:40:59.582Z,16.30
2022-11-14T22:43:47.357Z,16.03
2022-11-14T22:46:34.732Z,17.73
2022-11-14T22:49:22.273Z,16.50
2022-11-14T22:52:11.180Z,18.07
2022-11-14T22:54:58.952Z,18.87
2022-11-14T22:57:46.375Z,18.97
2022-11-14T23:00:34.052Z,19.07
2022-11-14T23:03:22.868Z,20.00
2022-11-14T23:06:13.716Z,20.92
2022-11-14T23:09:02.616Z,19.20
2022-11-14T23:11:50.261Z,20.03
2022-11-14T23:14:37.702Z,21.03
2022-11-14T23:17:25.484Z,19.90
2022-11-14T23:20:16.572Z,20.33
2022-11-14T23:23:04.532Z,21.40
2022-11-14T23:25:51.988Z,20.63
2022-11-14T23:28:40.092Z,21.83
2022-11-14T23:31:27.543Z,21.00
2022-11-14T23:34:14.923Z,20.90
2022-11-14T23:37:02.715Z,21.10
2022-11-14T23:39:49.826Z,21.27
2022-11-14T23:42:37.278Z,21.10
2022-11-14T23:48:10.942Z,21.25
2022-11-14T23:50:58.584Z,19.30
2022-11-14T23:53:47.253Z,22.00
2022-11-14T23:56:35.086Z,20.53
2022-11-14T23:59:22.687Z,21.77
